Reynolds, North Dakota
Current Conditions -  °F | °C
As of 12:04 PM on Thursday 29 Jan 2015 (Local Time) from KGFK Reporting Station
Light Snow Light Snow  
Wind Chill: -19°   Ceiling: 2100
Heat Index: -10°   Visibility: 3mi
Dew Point: -14°   Wind: 18mph
Humidity: 73%   Direction: 340°NNW
Pressure: 30.52"   Gusts: 23mph
Location:  47.67°N, 97.11°W
Report Text: KGFK 291804Z 34016G20KT 3SM -SN OVC021 M10/M14 A3052 RMK AO2 TWR VIS 8 P0000
Loading
Personal Weather Stations






























Interactive Weather Map New forecast layout! Learn more

10-Day Weather Forecast

Advertisements
Track Severe Weather on mobile